sensor_id;sensor_type;location;lat;lon;timestamp;P1;durP1;ratioP1;P2;durP2;ratioP2
75928;SDS011;64606;44.062;2.986;2023-06-19T00:01:19;11.27;;;5.00;;
75928;SDS011;64606;44.062;2.986;2023-06-19T00:03:45;10.43;;;4.47;;
75928;SDS011;64606;44.062;2.986;2023-06-19T00:06:11;6.07;;;4.22;;
75928;SDS011;64606;44.062;2.986;2023-06-19T00:08:38;11.27;;;4.93;;
75928;SDS011;64606;44.062;2.986;2023-06-19T00:11:06;5.80;;;4.15;;
75928;SDS011;64606;44.062;2.986;2023-06-19T00:13:32;7.93;;;4.53;;
75928;SDS011;64606;44.062;2.986;2023-06-19T00:15:59;7.53;;;4.57;;
75928;SDS011;64606;44.062;2.986;2023-06-19T00:18:26;6.53;;;4.28;;
75928;SDS011;64606;44.062;2.986;2023-06-19T00:20:52;10.63;;;4.43;;
75928;SDS011;64606;44.062;2.986;2023-06-19T00:23:21;6.80;;;4.45;;
75928;SDS011;64606;44.062;2.986;2023-06-19T00:25:47;7.35;;;4.55;;
75928;SDS011;64606;44.062;2.986;2023-06-19T00:28:13;7.88;;;4.32;;
75928;SDS011;64606;44.062;2.986;2023-06-19T00:30:40;8.13;;;5.05;;
75928;SDS011;64606;44.062;2.986;2023-06-19T00:33:06;7.78;;;4.32;;
75928;SDS011;64606;44.062;2.986;2023-06-19T00:35:33;6.70;;;4.82;;
75928;SDS011;64606;44.062;2.986;2023-06-19T00:37:59;9.60;;;4.63;;
75928;SDS011;64606;44.062;2.986;2023-06-19T00:40:29;8.77;;;4.50;;
75928;SDS011;64606;44.062;2.986;2023-06-19T00:42:55;7.55;;;4.32;;
75928;SDS011;64606;44.062;2.986;2023-06-19T00:45:21;9.68;;;4.70;;
75928;SDS011;64606;44.062;2.986;2023-06-19T00:47:49;6.75;;;4.60;;
75928;SDS011;64606;44.062;2.986;2023-06-19T00:50:16;9.68;;;5.03;;
75928;SDS011;64606;44.062;2.986;2023-06-19T00:52:42;8.60;;;4.53;;
75928;SDS011;64606;44.062;2.986;2023-06-19T00:55:08;7.10;;;4.75;;
75928;SDS011;64606;44.062;2.986;2023-06-19T00:57:35;10.70;;;4.85;;
75928;SDS011;64606;44.062;2.986;2023-06-19T01:00:02;11.20;;;5.05;;
75928;SDS011;64606;44.062;2.986;2023-06-19T01:02:32;7.53;;;4.43;;
75928;SDS011;64606;44.062;2.986;2023-06-19T01:04:58;7.75;;;4.43;;
75928;SDS011;64606;44.062;2.986;2023-06-19T01:07:50;7.55;;;4.97;;
75928;SDS011;64606;44.062;2.986;2023-06-19T01:10:15;9.95;;;4.82;;
75928;SDS011;64606;44.062;2.986;2023-06-19T01:12:44;11.32;;;4.90;;
75928;SDS011;64606;44.062;2.986;2023-06-19T01:15:16;8.88;;;4.50;;
75928;SDS011;64606;44.062;2.986;2023-06-19T01:17:43;6.68;;;4.90;;
75928;SDS011;64606;44.062;2.986;2023-06-19T01:20:10;7.80;;;4.32;;
75928;SDS011;64606;44.062;2.986;2023-06-19T01:22:36;16.75;;;4.50;;
75928;SDS011;64606;44.062;2.986;2023-06-19T01:25:02;7.97;;;4.18;;
75928;SDS011;64606;44.062;2.986;2023-06-19T01:27:31;10.57;;;5.15;;
75928;SDS011;64606;44.062;2.986;2023-06-19T01:30:01;10.93;;;4.88;;
75928;SDS011;64606;44.062;2.986;2023-06-19T01:32:36;5.85;;;4.70;;
75928;SDS011;64606;44.062;2.986;2023-06-19T01:35:06;8.00;;;4.88;;
75928;SDS011;64606;44.062;2.986;2023-06-19T01:37:37;9.65;;;4.57;;
75928;SDS011;64606;44.062;2.986;2023-06-19T01:40:04;9.80;;;4.80;;
75928;SDS011;64606;44.062;2.986;2023-06-19T01:42:34;7.45;;;4.70;;
75928;SDS011;64606;44.062;2.986;2023-06-19T01:45:01;9.15;;;5.50;;
75928;SDS011;64606;44.062;2.986;2023-06-19T01:47:28;9.50;;;5.15;;
75928;SDS011;64606;44.062;2.986;2023-06-19T01:49:54;9.68;;;4.65;;
75928;SDS011;64606;44.062;2.986;2023-06-19T01:52:20;6.15;;;4.72;;
75928;SDS011;64606;44.062;2.986;2023-06-19T01:54:46;7.32;;;4.30;;
75928;SDS011;64606;44.062;2.986;2023-06-19T01:57:13;6.82;;;4.78;;
75928;SDS011;64606;44.062;2.986;2023-06-19T01:59:39;6.10;;;4.88;;
75928;SDS011;64606;44.062;2.986;2023-06-19T02:02:05;10.18;;;4.70;;
75928;SDS011;64606;44.062;2.986;2023-06-19T02:04:32;7.13;;;4.65;;
75928;SDS011;64606;44.062;2.986;2023-06-19T02:06:58;9.07;;;4.70;;
75928;SDS011;64606;44.062;2.986;2023-06-19T02:09:24;10.15;;;5.10;;
75928;SDS011;64606;44.062;2.986;2023-06-19T02:11:51;8.55;;;5.05;;
75928;SDS011;64606;44.062;2.986;2023-06-19T02:14:17;7.93;;;4.95;;
75928;SDS011;64606;44.062;2.986;2023-06-19T02:16:43;7.65;;;4.72;;
75928;SDS011;64606;44.062;2.986;2023-06-19T02:19:12;10.68;;;4.93;;
75928;SDS011;64606;44.062;2.986;2023-06-19T02:21:38;7.57;;;4.68;;
75928;SDS011;64606;44.062;2.986;2023-06-19T02:24:04;6.85;;;4.93;;
75928;SDS011;64606;44.062;2.986;2023-06-19T02:26:31;8.82;;;4.65;;
75928;SDS011;64606;44.062;2.986;2023-06-19T02:28:57;8.82;;;4.90;;
75928;SDS011;64606;44.062;2.986;2023-06-19T02:31:24;6.75;;;4.82;;
75928;SDS011;64606;44.062;2.986;2023-06-19T02:33:50;9.00;;;4.40;;
75928;SDS011;64606;44.062;2.986;2023-06-19T02:36:16;10.02;;;4.90;;
75928;SDS011;64606;44.062;2.986;2023-06-19T02:38:46;8.48;;;5.50;;
75928;SDS011;64606;44.062;2.986;2023-06-19T02:41:12;12.80;;;5.88;;
75928;SDS011;64606;44.062;2.986;2023-06-19T02:43:39;7.45;;;5.03;;
75928;SDS011;64606;44.062;2.986;2023-06-19T02:46:06;9.02;;;5.13;;
75928;SDS011;64606;44.062;2.986;2023-06-19T02:48:32;9.00;;;5.13;;
75928;SDS011;64606;44.062;2.986;2023-06-19T02:50:58;10.02;;;4.68;;
75928;SDS011;64606;44.062;2.986;2023-06-19T02:53:24;6.72;;;4.75;;
75928;SDS011;64606;44.062;2.986;2023-06-19T02:55:50;8.00;;;4.53;;
75928;SDS011;64606;44.062;2.986;2023-06-19T02:58:16;7.47;;;4.85;;
75928;SDS011;64606;44.062;2.986;2023-06-19T03:00:43;10.55;;;5.75;;
75928;SDS011;64606;44.062;2.986;2023-06-19T03:03:09;9.35;;;5.55;;
75928;SDS011;64606;44.062;2.986;2023-06-19T03:05:36;12.07;;;5.82;;
75928;SDS011;64606;44.062;2.986;2023-06-19T03:08:02;7.38;;;5.07;;
75928;SDS011;64606;44.062;2.986;2023-06-19T03:10:28;7.75;;;5.00;;
75928;SDS011;64606;44.062;2.986;2023-06-19T03:12:55;14.38;;;5.30;;
75928;SDS011;64606;44.062;2.986;2023-06-19T03:15:23;8.70;;;5.20;;
75928;SDS011;64606;44.062;2.986;2023-06-19T03:17:49;10.95;;;5.20;;
75928;SDS011;64606;44.062;2.986;2023-06-19T03:20:16;11.32;;;5.18;;
75928;SDS011;64606;44.062;2.986;2023-06-19T03:22:42;9.73;;;5.35;;
75928;SDS011;64606;44.062;2.986;2023-06-19T03:25:08;7.00;;;4.93;;
75928;SDS011;64606;44.062;2.986;2023-06-19T03:27:34;9.98;;;5.25;;
75928;SDS011;64606;44.062;2.986;2023-06-19T03:30:01;10.10;;;5.10;;
75928;SDS011;64606;44.062;2.986;2023-06-19T03:32:31;7.38;;;5.00;;
75928;SDS011;64606;44.062;2.986;2023-06-19T03:34:57;12.07;;;5.57;;
75928;SDS011;64606;44.062;2.986;2023-06-19T03:37:24;10.15;;;5.40;;
75928;SDS011;64606;44.062;2.986;2023-06-19T03:39:50;8.70;;;5.30;;
75928;SDS011;64606;44.062;2.986;2023-06-19T03:42:16;6.88;;;5.78;;
75928;SDS011;64606;44.062;2.986;2023-06-19T03:44:42;8.90;;;5.90;;
75928;SDS011;64606;44.062;2.986;2023-06-19T03:47:08;7.72;;;5.65;;
75928;SDS011;64606;44.062;2.986;2023-06-19T03:49:34;9.10;;;5.72;;
75928;SDS011;64606;44.062;2.986;2023-06-19T03:52:00;11.13;;;6.03;;
75928;SDS011;64606;44.062;2.986;2023-06-19T03:54:27;8.35;;;5.20;;
75928;SDS011;64606;44.062;2.986;2023-06-19T03:56:53;10.85;;;5.57;;
75928;SDS011;64606;44.062;2.986;2023-06-19T03:59:19;11.82;;;5.32;;
75928;SDS011;64606;44.062;2.986;2023-06-19T04:01:45;10.27;;;5.55;;
75928;SDS011;64606;44.062;2.986;2023-06-19T04:04:11;9.57;;;5.80;;
75928;SDS011;64606;44.062;2.986;2023-06-19T04:06:37;11.48;;;5.50;;
75928;SDS011;64606;44.062;2.986;2023-06-19T04:09:03;8.18;;;5.45;;
75928;SDS011;64606;44.062;2.986;2023-06-19T04:11:30;10.00;;;5.82;;
75928;SDS011;64606;44.062;2.986;2023-06-19T04:13:56;12.68;;;5.78;;
75928;SDS011;64606;44.062;2.986;2023-06-19T04:16:22;12.63;;;5.90;;
75928;SDS011;64606;44.062;2.986;2023-06-19T04:18:48;9.05;;;5.18;;
75928;SDS011;64606;44.062;2.986;2023-06-19T04:21:14;12.70;;;5.70;;
75928;SDS011;64606;44.062;2.986;2023-06-19T04:23:41;14.60;;;5.82;;
75928;SDS011;64606;44.062;2.986;2023-06-19T04:26:07;8.40;;;5.88;;
75928;SDS011;64606;44.062;2.986;2023-06-19T04:28:33;9.95;;;5.30;;
75928;SDS011;64606;44.062;2.986;2023-06-19T04:30:59;8.48;;;5.13;;
75928;SDS011;64606;44.062;2.986;2023-06-19T04:33:29;9.63;;;5.55;;
75928;SDS011;64606;44.062;2.986;2023-06-19T04:35:55;8.75;;;5.60;;
75928;SDS011;64606;44.062;2.986;2023-06-19T04:38:21;10.90;;;5.47;;
75928;SDS011;64606;44.062;2.986;2023-06-19T04:40:51;10.80;;;5.60;;
75928;SDS011;64606;44.062;2.986;2023-06-19T04:43:17;11.30;;;5.63;;
75928;SDS011;64606;44.062;2.986;2023-06-19T04:45:43;12.85;;;5.55;;
75928;SDS011;64606;44.062;2.986;2023-06-19T04:48:09;10.15;;;5.20;;
75928;SDS011;64606;44.062;2.986;2023-06-19T04:50:36;10.38;;;5.55;;
75928;SDS011;64606;44.062;2.986;2023-06-19T04:53:02;7.13;;;5.00;;
75928;SDS011;64606;44.062;2.986;2023-06-19T04:55:28;9.02;;;5.20;;
75928;SDS011;64606;44.062;2.986;2023-06-19T04:57:55;9.55;;;5.45;;
75928;SDS011;64606;44.062;2.986;2023-06-19T05:00:21;9.60;;;5.70;;
75928;SDS011;64606;44.062;2.986;2023-06-19T05:02:48;10.68;;;5.32;;
75928;SDS011;64606;44.062;2.986;2023-06-19T05:05:15;9.82;;;5.43;;
75928;SDS011;64606;44.062;2.986;2023-06-19T05:07:41;10.02;;;5.75;;
75928;SDS011;64606;44.062;2.986;2023-06-19T05:10:10;8.75;;;5.38;;
75928;SDS011;64606;44.062;2.986;2023-06-19T05:12:36;9.48;;;5.55;;
75928;SDS011;64606;44.062;2.986;2023-06-19T05:15:02;25.77;;;6.68;;
75928;SDS011;64606;44.062;2.986;2023-06-19T05:17:28;10.43;;;6.13;;
75928;SDS011;64606;44.062;2.986;2023-06-19T05:19:54;8.93;;;5.53;;
75928;SDS011;64606;44.062;2.986;2023-06-19T05:22:21;8.75;;;5.32;;
75928;SDS011;64606;44.062;2.986;2023-06-19T05:24:49;9.95;;;5.57;;
75928;SDS011;64606;44.062;2.986;2023-06-19T05:27:15;9.50;;;5.88;;
75928;SDS011;64606;44.062;2.986;2023-06-19T05:29:41;7.80;;;5.70;;
75928;SDS011;64606;44.062;2.986;2023-06-19T05:32:07;12.50;;;6.22;;
75928;SDS011;64606;44.062;2.986;2023-06-19T05:34:33;9.93;;;6.10;;
75928;SDS011;64606;44.062;2.986;2023-06-19T05:36:59;11.07;;;5.85;;
75928;SDS011;64606;44.062;2.986;2023-06-19T05:39:28;10.10;;;5.30;;
75928;SDS011;64606;44.062;2.986;2023-06-19T05:41:54;10.30;;;5.90;;
75928;SDS011;64606;44.062;2.986;2023-06-19T05:44:20;12.73;;;5.95;;
75928;SDS011;64606;44.062;2.986;2023-06-19T05:46:47;11.60;;;6.03;;
75928;SDS011;64606;44.062;2.986;2023-06-19T05:49:13;11.35;;;6.13;;
75928;SDS011;64606;44.062;2.986;2023-06-19T05:51:40;10.20;;;5.20;;
75928;SDS011;64606;44.062;2.986;2023-06-19T05:54:06;8.40;;;5.50;;
75928;SDS011;64606;44.062;2.986;2023-06-19T05:56:32;9.27;;;5.32;;
75928;SDS011;64606;44.062;2.986;2023-06-19T05:58:59;9.23;;;5.00;;
75928;SDS011;64606;44.062;2.986;2023-06-19T06:01:26;10.32;;;5.63;;
75928;SDS011;64606;44.062;2.986;2023-06-19T06:03:53;6.85;;;5.05;;
75928;SDS011;64606;44.062;2.986;2023-06-19T06:06:19;8.25;;;5.13;;
75928;SDS011;64606;44.062;2.986;2023-06-19T06:08:45;10.30;;;5.22;;
75928;SDS011;64606;44.062;2.986;2023-06-19T06:11:12;9.20;;;5.00;;
75928;SDS011;64606;44.062;2.986;2023-06-19T06:13:38;8.80;;;4.70;;
75928;SDS011;64606;44.062;2.986;2023-06-19T06:16:04;8.55;;;4.93;;
75928;SDS011;64606;44.062;2.986;2023-06-19T06:18:30;9.25;;;5.18;;
75928;SDS011;64606;44.062;2.986;2023-06-19T06:20:56;8.57;;;4.97;;
75928;SDS011;64606;44.062;2.986;2023-06-19T06:23:24;7.15;;;5.05;;
75928;SDS011;64606;44.062;2.986;2023-06-19T06:25:50;7.63;;;4.70;;
75928;SDS011;64606;44.062;2.986;2023-06-19T06:28:16;8.63;;;5.05;;
75928;SDS011;64606;44.062;2.986;2023-06-19T06:30:42;7.35;;;4.50;;
75928;SDS011;64606;44.062;2.986;2023-06-19T06:33:09;8.02;;;4.63;;
75928;SDS011;64606;44.062;2.986;2023-06-19T06:35:35;7.20;;;4.70;;
75928;SDS011;64606;44.062;2.986;2023-06-19T06:38:02;9.20;;;5.22;;
75928;SDS011;64606;44.062;2.986;2023-06-19T06:40:28;8.05;;;4.82;;
75928;SDS011;64606;44.062;2.986;2023-06-19T06:42:54;7.50;;;4.82;;
75928;SDS011;64606;44.062;2.986;2023-06-19T06:45:20;11.48;;;5.85;;
75928;SDS011;64606;44.062;2.986;2023-06-19T06:47:47;8.95;;;5.53;;
75928;SDS011;64606;44.062;2.986;2023-06-19T06:50:13;8.80;;;5.35;;
75928;SDS011;64606;44.062;2.986;2023-06-19T06:52:39;9.52;;;5.10;;
75928;SDS011;64606;44.062;2.986;2023-06-19T06:55:05;10.40;;;5.93;;
75928;SDS011;64606;44.062;2.986;2023-06-19T06:57:31;8.70;;;5.80;;
75928;SDS011;64606;44.062;2.986;2023-06-19T06:59:57;10.05;;;5.50;;
75928;SDS011;64606;44.062;2.986;2023-06-19T07:02:23;7.40;;;4.72;;
75928;SDS011;64606;44.062;2.986;2023-06-19T07:04:50;10.02;;;5.70;;
75928;SDS011;64606;44.062;2.986;2023-06-19T07:07:17;8.32;;;5.75;;
75928;SDS011;64606;44.062;2.986;2023-06-19T07:09:43;12.65;;;5.93;;
75928;SDS011;64606;44.062;2.986;2023-06-19T07:12:09;7.50;;;5.38;;
75928;SDS011;64606;44.062;2.986;2023-06-19T07:14:35;11.13;;;5.80;;
75928;SDS011;64606;44.062;2.986;2023-06-19T07:17:01;12.52;;;5.50;;
75928;SDS011;64606;44.062;2.986;2023-06-19T07:19:28;10.27;;;6.00;;
75928;SDS011;64606;44.062;2.986;2023-06-19T07:21:54;7.45;;;5.15;;
75928;SDS011;64606;44.062;2.986;2023-06-19T07:24:21;9.10;;;5.68;;
75928;SDS011;64606;44.062;2.986;2023-06-19T07:26:48;13.52;;;6.22;;
75928;SDS011;64606;44.062;2.986;2023-06-19T07:29:15;10.05;;;6.10;;
75928;SDS011;64606;44.062;2.986;2023-06-19T07:31:41;11.98;;;5.82;;
75928;SDS011;64606;44.062;2.986;2023-06-19T07:34:10;8.25;;;5.60;;
75928;SDS011;64606;44.062;2.986;2023-06-19T07:36:36;7.15;;;5.50;;
75928;SDS011;64606;44.062;2.986;2023-06-19T07:39:02;11.30;;;5.75;;
75928;SDS011;64606;44.062;2.986;2023-06-19T07:41:28;11.32;;;5.47;;
75928;SDS011;64606;44.062;2.986;2023-06-19T07:43:54;10.05;;;5.15;;
75928;SDS011;64606;44.062;2.986;2023-06-19T07:46:20;9.55;;;5.00;;
75928;SDS011;64606;44.062;2.986;2023-06-19T07:48:46;9.25;;;5.40;;
75928;SDS011;64606;44.062;2.986;2023-06-19T07:51:13;10.88;;;5.78;;
75928;SDS011;64606;44.062;2.986;2023-06-19T07:53:39;18.80;;;6.60;;
75928;SDS011;64606;44.062;2.986;2023-06-19T07:56:05;8.15;;;5.88;;
75928;SDS011;64606;44.062;2.986;2023-06-19T07:58:31;11.23;;;5.53;;
75928;SDS011;64606;44.062;2.986;2023-06-19T08:00:57;10.38;;;5.40;;
75928;SDS011;64606;44.062;2.986;2023-06-19T08:03:23;11.98;;;6.13;;
75928;SDS011;64606;44.062;2.986;2023-06-19T08:05:49;8.63;;;5.57;;
75928;SDS011;64606;44.062;2.986;2023-06-19T08:08:16;8.68;;;5.20;;
75928;SDS011;64606;44.062;2.986;2023-06-19T08:10:42;12.07;;;6.03;;
75928;SDS011;64606;44.062;2.986;2023-06-19T08:13:08;10.95;;;5.85;;
75928;SDS011;64606;44.062;2.986;2023-06-19T08:15:36;7.70;;;5.43;;
75928;SDS011;64606;44.062;2.986;2023-06-19T08:18:02;9.15;;;5.68;;
75928;SDS011;64606;44.062;2.986;2023-06-19T08:20:28;9.73;;;5.97;;
75928;SDS011;64606;44.062;2.986;2023-06-19T08:22:55;7.20;;;5.18;;
75928;SDS011;64606;44.062;2.986;2023-06-19T08:25:21;7.80;;;5.28;;
75928;SDS011;64606;44.062;2.986;2023-06-19T08:27:48;12.15;;;5.28;;
75928;SDS011;64606;44.062;2.986;2023-06-19T08:30:14;7.72;;;4.53;;
75928;SDS011;64606;44.062;2.986;2023-06-19T08:32:40;8.48;;;4.70;;
75928;SDS011;64606;44.062;2.986;2023-06-19T08:35:06;12.30;;;5.03;;
75928;SDS011;64606;44.062;2.986;2023-06-19T08:37:33;8.05;;;4.40;;
75928;SDS011;64606;44.062;2.986;2023-06-19T08:39:59;19.00;;;4.97;;
75928;SDS011;64606;44.062;2.986;2023-06-19T08:42:25;10.98;;;4.55;;
75928;SDS011;64606;44.062;2.986;2023-06-19T08:44:51;10.63;;;4.60;;
75928;SDS011;64606;44.062;2.986;2023-06-19T08:47:17;8.07;;;4.28;;
75928;SDS011;64606;44.062;2.986;2023-06-19T08:49:43;15.32;;;5.25;;
75928;SDS011;64606;44.062;2.986;2023-06-19T08:52:10;8.48;;;4.20;;
75928;SDS011;64606;44.062;2.986;2023-06-19T08:54:36;10.85;;;4.40;;
75928;SDS011;64606;44.062;2.986;2023-06-19T08:57:09;8.65;;;4.53;;
75928;SDS011;64606;44.062;2.986;2023-06-19T08:59:36;7.65;;;4.15;;
75928;SDS011;64606;44.062;2.986;2023-06-19T09:02:02;8.40;;;4.38;;
75928;SDS011;64606;44.062;2.986;2023-06-19T09:04:28;6.32;;;4.03;;
75928;SDS011;64606;44.062;2.986;2023-06-19T09:07:00;8.30;;;4.43;;
75928;SDS011;64606;44.062;2.986;2023-06-19T09:09:27;7.82;;;4.65;;
75928;SDS011;64606;44.062;2.986;2023-06-19T09:12:04;6.25;;;4.25;;
75928;SDS011;64606;44.062;2.986;2023-06-19T09:14:34;9.40;;;4.38;;
75928;SDS011;64606;44.062;2.986;2023-06-19T09:17:02;9.23;;;4.85;;
75928;SDS011;64606;44.062;2.986;2023-06-19T09:19:28;9.32;;;4.90;;
75928;SDS011;64606;44.062;2.986;2023-06-19T09:22:01;7.53;;;4.50;;
75928;SDS011;64606;44.062;2.986;2023-06-19T09:24:34;6.50;;;4.45;;
75928;SDS011;64606;44.062;2.986;2023-06-19T09:27:11;10.57;;;4.53;;
75928;SDS011;64606;44.062;2.986;2023-06-19T09:29:43;5.70;;;4.28;;
75928;SDS011;64606;44.062;2.986;2023-06-19T09:32:16;10.23;;;5.15;;
75928;SDS011;64606;44.062;2.986;2023-06-19T09:34:42;10.35;;;5.30;;
75928;SDS011;64606;44.062;2.986;2023-06-19T09:37:09;7.68;;;4.70;;
75928;SDS011;64606;44.062;2.986;2023-06-19T09:39:38;8.35;;;5.28;;
75928;SDS011;64606;44.062;2.986;2023-06-19T09:42:07;6.95;;;4.72;;
75928;SDS011;64606;44.062;2.986;2023-06-19T09:44:39;7.95;;;4.88;;
75928;SDS011;64606;44.062;2.986;2023-06-19T09:47:08;7.93;;;4.53;;
75928;SDS011;64606;44.062;2.986;2023-06-19T09:49:38;5.50;;;4.53;;
75928;SDS011;64606;44.062;2.986;2023-06-19T09:52:04;5.60;;;4.82;;
75928;SDS011;64606;44.062;2.986;2023-06-19T09:54:31;6.85;;;4.70;;
75928;SDS011;64606;44.062;2.986;2023-06-19T09:56:58;8.60;;;5.55;;
75928;SDS011;64606;44.062;2.986;2023-06-19T09:59:28;5.90;;;4.63;;
75928;SDS011;64606;44.062;2.986;2023-06-19T10:01:54;9.05;;;5.15;;
75928;SDS011;64606;44.062;2.986;2023-06-19T10:04:20;7.70;;;5.43;;
75928;SDS011;64606;44.062;2.986;2023-06-19T10:06:46;8.75;;;5.03;;
75928;SDS011;64606;44.062;2.986;2023-06-19T10:09:14;6.28;;;4.55;;
75928;SDS011;64606;44.062;2.986;2023-06-19T10:11:45;10.05;;;5.75;;
75928;SDS011;64606;44.062;2.986;2023-06-19T10:14:11;7.15;;;4.75;;
75928;SDS011;64606;44.062;2.986;2023-06-19T10:16:38;6.50;;;4.78;;
75928;SDS011;64606;44.062;2.986;2023-06-19T10:19:15;9.80;;;5.10;;
75928;SDS011;64606;44.062;2.986;2023-06-19T10:21:49;7.15;;;4.55;;
75928;SDS011;64606;44.062;2.986;2023-06-19T10:24:16;8.90;;;5.47;;
75928;SDS011;64606;44.062;2.986;2023-06-19T10:27:01;9.55;;;5.20;;
75928;SDS011;64606;44.062;2.986;2023-06-19T10:29:40;6.80;;;4.72;;
75928;SDS011;64606;44.062;2.986;2023-06-19T10:32:06;6.82;;;4.40;;
75928;SDS011;64606;44.062;2.986;2023-06-19T10:34:33;11.45;;;5.35;;
75928;SDS011;64606;44.062;2.986;2023-06-19T10:37:00;7.78;;;4.47;;
75928;SDS011;64606;44.062;2.986;2023-06-19T10:39:26;6.63;;;4.03;;
75928;SDS011;64606;44.062;2.986;2023-06-19T10:41:52;5.47;;;4.07;;
75928;SDS011;64606;44.062;2.986;2023-06-19T10:44:18;7.30;;;4.32;;
75928;SDS011;64606;44.062;2.986;2023-06-19T10:46:44;7.28;;;4.25;;
75928;SDS011;64606;44.062;2.986;2023-06-19T10:49:10;7.20;;;4.28;;
75928;SDS011;64606;44.062;2.986;2023-06-19T10:51:39;7.00;;;4.68;;
75928;SDS011;64606;44.062;2.986;2023-06-19T10:54:06;7.35;;;4.13;;
75928;SDS011;64606;44.062;2.986;2023-06-19T10:56:32;8.38;;;4.15;;
75928;SDS011;64606;44.062;2.986;2023-06-19T10:59:00;6.88;;;4.18;;
75928;SDS011;64606;44.062;2.986;2023-06-19T11:01:36;11.32;;;4.80;;
75928;SDS011;64606;44.062;2.986;2023-06-19T11:04:06;5.80;;;4.63;;
75928;SDS011;64606;44.062;2.986;2023-06-19T11:06:33;8.38;;;4.30;;
75928;SDS011;64606;44.062;2.986;2023-06-19T11:09:00;11.18;;;4.80;;
75928;SDS011;64606;44.062;2.986;2023-06-19T11:11:36;8.20;;;5.03;;
75928;SDS011;64606;44.062;2.986;2023-06-19T11:16:28;7.68;;;4.95;;
75928;SDS011;64606;44.062;2.986;2023-06-19T11:18:58;10.70;;;5.07;;
75928;SDS011;64606;44.062;2.986;2023-06-19T11:21:34;7.93;;;4.50;;
75928;SDS011;64606;44.062;2.986;2023-06-19T11:24:03;7.85;;;4.78;;
75928;SDS011;64606;44.062;2.986;2023-06-19T11:26:34;8.13;;;4.60;;
75928;SDS011;64606;44.062;2.986;2023-06-19T11:29:01;7.25;;;4.70;;
75928;SDS011;64606;44.062;2.986;2023-06-19T11:31:28;6.57;;;4.60;;
75928;SDS011;64606;44.062;2.986;2023-06-19T11:34:00;7.35;;;4.30;;
75928;SDS011;64606;44.062;2.986;2023-06-19T11:36:27;9.75;;;4.05;;
75928;SDS011;64606;44.062;2.986;2023-06-19T11:38:54;7.80;;;4.45;;
75928;SDS011;64606;44.062;2.986;2023-06-19T11:41:24;7.30;;;4.55;;
75928;SDS011;64606;44.062;2.986;2023-06-19T11:43:57;8.77;;;4.80;;
75928;SDS011;64606;44.062;2.986;2023-06-19T11:46:27;6.50;;;4.45;;
75928;SDS011;64606;44.062;2.986;2023-06-19T11:48:54;8.25;;;4.03;;
75928;SDS011;64606;44.062;2.986;2023-06-19T11:51:21;11.52;;;4.40;;
75928;SDS011;64606;44.062;2.986;2023-06-19T11:53:47;16.48;;;3.90;;
75928;SDS011;64606;44.062;2.986;2023-06-19T11:56:13;7.97;;;4.00;;
75928;SDS011;64606;44.062;2.986;2023-06-19T11:58:39;12.60;;;4.25;;
75928;SDS011;64606;44.062;2.986;2023-06-19T12:01:05;14.25;;;4.25;;
75928;SDS011;64606;44.062;2.986;2023-06-19T12:03:31;20.48;;;4.68;;
75928;SDS011;64606;44.062;2.986;2023-06-19T12:05:58;5.45;;;3.60;;
75928;SDS011;64606;44.062;2.986;2023-06-19T12:08:24;8.25;;;3.92;;
75928;SDS011;64606;44.062;2.986;2023-06-19T12:10:50;21.02;;;4.25;;
75928;SDS011;64606;44.062;2.986;2023-06-19T12:13:17;19.60;;;5.00;;
75928;SDS011;64606;44.062;2.986;2023-06-19T12:15:43;11.07;;;4.28;;
75928;SDS011;64606;44.062;2.986;2023-06-19T12:18:10;20.75;;;4.90;;
75928;SDS011;64606;44.062;2.986;2023-06-19T12:20:37;15.52;;;4.20;;
75928;SDS011;64606;44.062;2.986;2023-06-19T12:23:03;9.15;;;4.03;;
75928;SDS011;64606;44.062;2.986;2023-06-19T12:25:29;10.43;;;4.10;;
75928;SDS011;64606;44.062;2.986;2023-06-19T12:27:55;4.63;;;3.30;;
75928;SDS011;64606;44.062;2.986;2023-06-19T12:30:21;10.98;;;3.90;;
75928;SDS011;64606;44.062;2.986;2023-06-19T12:32:48;4.50;;;3.50;;
75928;SDS011;64606;44.062;2.986;2023-06-19T12:35:15;6.63;;;3.90;;
75928;SDS011;64606;44.062;2.986;2023-06-19T12:37:41;10.32;;;4.30;;
75928;SDS011;64606;44.062;2.986;2023-06-19T12:40:07;7.72;;;3.97;;
75928;SDS011;64606;44.062;2.986;2023-06-19T12:42:36;6.25;;;3.78;;
75928;SDS011;64606;44.062;2.986;2023-06-19T12:45:02;6.78;;;4.07;;
75928;SDS011;64606;44.062;2.986;2023-06-19T12:47:29;34.75;;;5.07;;
75928;SDS011;64606;44.062;2.986;2023-06-19T12:49:55;29.00;;;5.22;;
75928;SDS011;64606;44.062;2.986;2023-06-19T12:52:21;10.63;;;4.30;;
75928;SDS011;64606;44.062;2.986;2023-06-19T12:54:47;7.20;;;4.10;;
75928;SDS011;64606;44.062;2.986;2023-06-19T12:57:13;8.18;;;3.70;;
75928;SDS011;64606;44.062;2.986;2023-06-19T12:59:39;6.85;;;4.03;;
75928;SDS011;64606;44.062;2.986;2023-06-19T13:02:06;6.38;;;4.32;;
75928;SDS011;64606;44.062;2.986;2023-06-19T13:04:32;6.32;;;4.10;;
75928;SDS011;64606;44.062;2.986;2023-06-19T13:06:58;7.88;;;3.65;;
75928;SDS011;64606;44.062;2.986;2023-06-19T13:09:24;5.30;;;3.83;;
75928;SDS011;64606;44.062;2.986;2023-06-19T13:11:50;8.05;;;3.95;;
75928;SDS011;64606;44.062;2.986;2023-06-19T13:14:17;7.97;;;4.18;;
75928;SDS011;64606;44.062;2.986;2023-06-19T13:16:43;7.65;;;3.83;;
75928;SDS011;64606;44.062;2.986;2023-06-19T13:19:09;6.50;;;4.10;;
75928;SDS011;64606;44.062;2.986;2023-06-19T13:21:35;6.45;;;4.05;;
75928;SDS011;64606;44.062;2.986;2023-06-19T13:24:01;12.10;;;4.38;;
75928;SDS011;64606;44.062;2.986;2023-06-19T13:26:27;12.15;;;4.13;;
75928;SDS011;64606;44.062;2.986;2023-06-19T13:28:53;7.15;;;3.53;;
75928;SDS011;64606;44.062;2.986;2023-06-19T13:31:24;4.60;;;3.67;;
75928;SDS011;64606;44.062;2.986;2023-06-19T13:33:50;6.80;;;3.55;;
75928;SDS011;64606;44.062;2.986;2023-06-19T13:36:17;4.32;;;3.92;;
75928;SDS011;64606;44.062;2.986;2023-06-19T13:38:44;15.27;;;4.35;;
75928;SDS011;64606;44.062;2.986;2023-06-19T13:41:11;11.98;;;3.90;;
75928;SDS011;64606;44.062;2.986;2023-06-19T13:43:38;11.85;;;3.53;;
75928;SDS011;64606;44.062;2.986;2023-06-19T13:46:07;10.32;;;3.85;;
75928;SDS011;64606;44.062;2.986;2023-06-19T13:48:33;7.15;;;3.88;;
75928;SDS011;64606;44.062;2.986;2023-06-19T13:51:00;11.57;;;4.10;;
75928;SDS011;64606;44.062;2.986;2023-06-19T13:53:26;9.85;;;4.57;;
75928;SDS011;64606;44.062;2.986;2023-06-19T13:55:54;11.60;;;3.90;;
75928;SDS011;64606;44.062;2.986;2023-06-19T13:58:20;8.90;;;4.30;;
75928;SDS011;64606;44.062;2.986;2023-06-19T14:00:47;7.22;;;4.10;;
75928;SDS011;64606;44.062;2.986;2023-06-19T14:03:13;7.32;;;4.07;;
75928;SDS011;64606;44.062;2.986;2023-06-19T14:05:39;11.68;;;4.30;;
75928;SDS011;64606;44.062;2.986;2023-06-19T14:08:05;6.82;;;4.10;;
75928;SDS011;64606;44.062;2.986;2023-06-19T14:10:31;7.13;;;3.95;;
75928;SDS011;64606;44.062;2.986;2023-06-19T14:12:59;18.60;;;4.07;;
75928;SDS011;64606;44.062;2.986;2023-06-19T14:15:25;14.73;;;4.15;;
75928;SDS011;64606;44.062;2.986;2023-06-19T14:17:51;9.45;;;3.72;;
75928;SDS011;64606;44.062;2.986;2023-06-19T14:20:18;8.75;;;3.67;;
75928;SDS011;64606;44.062;2.986;2023-06-19T14:22:44;14.98;;;4.65;;
75928;SDS011;64606;44.062;2.986;2023-06-19T14:25:10;8.90;;;3.83;;
75928;SDS011;64606;44.062;2.986;2023-06-19T14:27:36;6.63;;;4.00;;
75928;SDS011;64606;44.062;2.986;2023-06-19T14:30:02;7.63;;;4.40;;
75928;SDS011;64606;44.062;2.986;2023-06-19T14:32:29;11.25;;;4.30;;
75928;SDS011;64606;44.062;2.986;2023-06-19T14:34:55;8.23;;;4.60;;
75928;SDS011;64606;44.062;2.986;2023-06-19T14:37:21;8.38;;;4.53;;
75928;SDS011;64606;44.062;2.986;2023-06-19T14:39:47;7.88;;;4.20;;
75928;SDS011;64606;44.062;2.986;2023-06-19T14:42:13;13.90;;;4.78;;
75928;SDS011;64606;44.062;2.986;2023-06-19T14:44:39;9.48;;;4.40;;